Terminal Aerodrome Forecast
Issued by NWS

Home | Current Version | Previous Version | Text Only | Print | Product List | Glossary On
Versions: 1 2 3 4 5 6 7 8 9 10 11 12 13 14 15
870
FTUS42 KMLB 072327
TAFISM
TAF
KISM 072327Z 0800/0824 30009KT P6SM SKC
     FM080900 29005KT P6SM FEW250
     FM081600 26013G22KT P6SM SCT045 SCT250
      AMD NOT SKED 0803/0812=

USA.gov is the U.S. government's official web portal to all federal, state and local government web resources and services.